sensor_id;sensor_type;location;lat;lon;timestamp;P1;durP1;ratioP1;P2;durP2;ratioP2
53879;SDS011;39791;53.184;5.486;2023-04-03T00:00:59;42.55;;;39.78;;
53879;SDS011;39791;53.184;5.486;2023-04-03T00:03:25;40.83;;;38.03;;
53879;SDS011;39791;53.184;5.486;2023-04-03T00:05:51;28.00;;;26.08;;
53879;SDS011;39791;53.184;5.486;2023-04-03T00:08:16;59.40;;;55.25;;
53879;SDS011;39791;53.184;5.486;2023-04-03T00:10:42;25.02;;;23.23;;
53879;SDS011;39791;53.184;5.486;2023-04-03T00:13:08;23.55;;;21.85;;
53879;SDS011;39791;53.184;5.486;2023-04-03T00:15:34;16.65;;;15.35;;
53879;SDS011;39791;53.184;5.486;2023-04-03T00:18:00;24.33;;;22.58;;
53879;SDS011;39791;53.184;5.486;2023-04-03T00:20:26;50.13;;;46.80;;
53879;SDS011;39791;53.184;5.486;2023-04-03T00:22:52;30.77;;;28.45;;
53879;SDS011;39791;53.184;5.486;2023-04-03T00:25:18;22.50;;;20.98;;
53879;SDS011;39791;53.184;5.486;2023-04-03T00:27:44;28.42;;;26.52;;
53879;SDS011;39791;53.184;5.486;2023-04-03T00:30:11;37.67;;;34.63;;
53879;SDS011;39791;53.184;5.486;2023-04-03T00:32:39;28.50;;;26.50;;
53879;SDS011;39791;53.184;5.486;2023-04-03T00:35:05;32.08;;;29.88;;
53879;SDS011;39791;53.184;5.486;2023-04-03T00:37:31;39.05;;;36.55;;
53879;SDS011;39791;53.184;5.486;2023-04-03T00:39:57;22.58;;;21.08;;
53879;SDS011;39791;53.184;5.486;2023-04-03T00:42:23;42.28;;;39.53;;
53879;SDS011;39791;53.184;5.486;2023-04-03T00:47:17;26.55;;;24.48;;
53879;SDS011;39791;53.184;5.486;2023-04-03T00:49:43;25.25;;;23.38;;
53879;SDS011;39791;53.184;5.486;2023-04-03T00:52:11;15.73;;;14.18;;
53879;SDS011;39791;53.184;5.486;2023-04-03T00:54:41;22.08;;;20.30;;
53879;SDS011;39791;53.184;5.486;2023-04-03T00:57:08;23.25;;;21.58;;
53879;SDS011;39791;53.184;5.486;2023-04-03T00:59:36;38.35;;;35.22;;
53879;SDS011;39791;53.184;5.486;2023-04-03T01:02:06;23.15;;;21.35;;
53879;SDS011;39791;53.184;5.486;2023-04-03T01:04:39;25.17;;;23.40;;
53879;SDS011;39791;53.184;5.486;2023-04-03T01:07:08;34.67;;;32.03;;
53879;SDS011;39791;53.184;5.486;2023-04-03T01:09:43;27.20;;;25.17;;
53879;SDS011;39791;53.184;5.486;2023-04-03T01:12:17;29.00;;;27.00;;
53879;SDS011;39791;53.184;5.486;2023-04-03T01:14:46;49.40;;;44.90;;
53879;SDS011;39791;53.184;5.486;2023-04-03T01:20:41;59.72;;;55.78;;
53879;SDS011;39791;53.184;5.486;2023-04-03T01:22:53;33.50;;;30.88;;
53879;SDS011;39791;53.184;5.486;2023-04-03T01:25:47;39.90;;;37.15;;
53879;SDS011;39791;53.184;5.486;2023-04-03T01:28:16;52.53;;;48.95;;
53879;SDS011;39791;53.184;5.486;2023-04-03T01:30:49;30.80;;;28.40;;
53879;SDS011;39791;53.184;5.486;2023-04-03T01:33:34;32.20;;;30.10;;
53879;SDS011;39791;53.184;5.486;2023-04-03T01:36:00;27.75;;;25.50;;
53879;SDS011;39791;53.184;5.486;2023-04-03T01:38:26;27.40;;;25.42;;
53879;SDS011;39791;53.184;5.486;2023-04-03T01:40:52;28.08;;;25.85;;
53879;SDS011;39791;53.184;5.486;2023-04-03T01:43:17;21.20;;;19.67;;
53879;SDS011;39791;53.184;5.486;2023-04-03T01:45:43;26.38;;;24.48;;
53879;SDS011;39791;53.184;5.486;2023-04-03T01:48:09;24.45;;;22.60;;
53879;SDS011;39791;53.184;5.486;2023-04-03T01:50:34;32.20;;;29.77;;
53879;SDS011;39791;53.184;5.486;2023-04-03T01:53:00;26.80;;;24.95;;
53879;SDS011;39791;53.184;5.486;2023-04-03T01:55:25;20.75;;;19.23;;
53879;SDS011;39791;53.184;5.486;2023-04-03T01:57:51;26.42;;;24.65;;
53879;SDS011;39791;53.184;5.486;2023-04-03T02:00:17;43.75;;;40.80;;
53879;SDS011;39791;53.184;5.486;2023-04-03T02:02:42;44.65;;;40.95;;
53879;SDS011;39791;53.184;5.486;2023-04-03T02:05:08;18.15;;;16.75;;
53879;SDS011;39791;53.184;5.486;2023-04-03T02:07:34;15.10;;;13.95;;
53879;SDS011;39791;53.184;5.486;2023-04-03T02:10:00;13.45;;;12.50;;
53879;SDS011;39791;53.184;5.486;2023-04-03T02:12:25;29.25;;;26.55;;
53879;SDS011;39791;53.184;5.486;2023-04-03T02:14:51;21.27;;;19.77;;
53879;SDS011;39791;53.184;5.486;2023-04-03T02:17:16;18.77;;;17.15;;
53879;SDS011;39791;53.184;5.486;2023-04-03T02:19:42;14.93;;;13.43;;
53879;SDS011;39791;53.184;5.486;2023-04-03T02:22:08;9.52;;;8.70;;
53879;SDS011;39791;53.184;5.486;2023-04-03T02:24:33;22.73;;;21.05;;
53879;SDS011;39791;53.184;5.486;2023-04-03T02:26:59;24.73;;;22.77;;
53879;SDS011;39791;53.184;5.486;2023-04-03T02:29:25;16.73;;;15.07;;
53879;SDS011;39791;53.184;5.486;2023-04-03T02:31:50;23.67;;;22.02;;
53879;SDS011;39791;53.184;5.486;2023-04-03T02:34:16;14.95;;;13.70;;
53879;SDS011;39791;53.184;5.486;2023-04-03T02:36:42;18.65;;;17.25;;
53879;SDS011;39791;53.184;5.486;2023-04-03T02:39:08;17.02;;;15.73;;
53879;SDS011;39791;53.184;5.486;2023-04-03T02:41:33;19.48;;;17.88;;
53879;SDS011;39791;53.184;5.486;2023-04-03T02:44:02;11.82;;;10.63;;
53879;SDS011;39791;53.184;5.486;2023-04-03T02:46:30;14.50;;;13.27;;
53879;SDS011;39791;53.184;5.486;2023-04-03T02:48:55;31.15;;;28.80;;
53879;SDS011;39791;53.184;5.486;2023-04-03T02:51:21;14.75;;;13.70;;
53879;SDS011;39791;53.184;5.486;2023-04-03T02:53:48;12.40;;;11.35;;
53879;SDS011;39791;53.184;5.486;2023-04-03T02:56:14;12.93;;;11.82;;
53879;SDS011;39791;53.184;5.486;2023-04-03T02:58:39;14.15;;;13.05;;
53879;SDS011;39791;53.184;5.486;2023-04-03T03:01:05;19.05;;;17.58;;
53879;SDS011;39791;53.184;5.486;2023-04-03T03:03:31;13.57;;;12.52;;
53879;SDS011;39791;53.184;5.486;2023-04-03T03:06:10;17.08;;;15.63;;
53879;SDS011;39791;53.184;5.486;2023-04-03T03:08:37;16.63;;;15.13;;
53879;SDS011;39791;53.184;5.486;2023-04-03T03:11:03;26.35;;;24.20;;
53879;SDS011;39791;53.184;5.486;2023-04-03T03:13:30;20.95;;;19.15;;
53879;SDS011;39791;53.184;5.486;2023-04-03T03:15:55;22.15;;;20.23;;
53879;SDS011;39791;53.184;5.486;2023-04-03T03:18:21;19.48;;;17.73;;
53879;SDS011;39791;53.184;5.486;2023-04-03T03:20:51;34.25;;;31.17;;
53879;SDS011;39791;53.184;5.486;2023-04-03T03:23:21;39.10;;;36.28;;
53879;SDS011;39791;53.184;5.486;2023-04-03T03:25:48;22.08;;;20.30;;
53879;SDS011;39791;53.184;5.486;2023-04-03T03:28:14;31.77;;;28.98;;
53879;SDS011;39791;53.184;5.486;2023-04-03T03:30:40;16.63;;;15.25;;
53879;SDS011;39791;53.184;5.486;2023-04-03T03:33:05;27.20;;;24.98;;
53879;SDS011;39791;53.184;5.486;2023-04-03T03:35:31;20.80;;;19.13;;
53879;SDS011;39791;53.184;5.486;2023-04-03T03:37:57;18.63;;;16.92;;
53879;SDS011;39791;53.184;5.486;2023-04-03T03:40:22;20.13;;;18.27;;
53879;SDS011;39791;53.184;5.486;2023-04-03T03:42:48;22.55;;;20.80;;
53879;SDS011;39791;53.184;5.486;2023-04-03T03:45:13;22.25;;;20.63;;
53879;SDS011;39791;53.184;5.486;2023-04-03T03:47:39;20.92;;;18.85;;
53879;SDS011;39791;53.184;5.486;2023-04-03T03:50:05;13.30;;;11.98;;
53879;SDS011;39791;53.184;5.486;2023-04-03T03:52:31;31.23;;;28.58;;
53879;SDS011;39791;53.184;5.486;2023-04-03T03:54:57;18.08;;;16.60;;
53879;SDS011;39791;53.184;5.486;2023-04-03T03:57:22;17.17;;;15.82;;
53879;SDS011;39791;53.184;5.486;2023-04-03T03:59:48;19.20;;;17.83;;
53879;SDS011;39791;53.184;5.486;2023-04-03T04:02:15;23.15;;;21.10;;
53879;SDS011;39791;53.184;5.486;2023-04-03T04:04:41;19.23;;;17.30;;
53879;SDS011;39791;53.184;5.486;2023-04-03T04:07:06;28.70;;;25.73;;
53879;SDS011;39791;53.184;5.486;2023-04-03T04:09:32;21.60;;;19.90;;
53879;SDS011;39791;53.184;5.486;2023-04-03T04:11:58;16.50;;;15.30;;
53879;SDS011;39791;53.184;5.486;2023-04-03T04:14:23;17.23;;;15.63;;
53879;SDS011;39791;53.184;5.486;2023-04-03T04:16:49;18.98;;;17.50;;
53879;SDS011;39791;53.184;5.486;2023-04-03T04:19:14;15.50;;;14.07;;
53879;SDS011;39791;53.184;5.486;2023-04-03T04:21:40;16.40;;;14.85;;
53879;SDS011;39791;53.184;5.486;2023-04-03T04:24:06;27.50;;;24.70;;
53879;SDS011;39791;53.184;5.486;2023-04-03T04:26:33;13.68;;;12.43;;
53879;SDS011;39791;53.184;5.486;2023-04-03T04:28:58;15.77;;;14.48;;
53879;SDS011;39791;53.184;5.486;2023-04-03T04:31:24;18.92;;;16.98;;
53879;SDS011;39791;53.184;5.486;2023-04-03T04:33:50;19.70;;;18.13;;
53879;SDS011;39791;53.184;5.486;2023-04-03T04:36:15;19.00;;;17.40;;
53879;SDS011;39791;53.184;5.486;2023-04-03T04:38:41;18.83;;;16.98;;
53879;SDS011;39791;53.184;5.486;2023-04-03T04:41:07;16.27;;;14.63;;
53879;SDS011;39791;53.184;5.486;2023-04-03T04:43:33;16.63;;;14.95;;
53879;SDS011;39791;53.184;5.486;2023-04-03T04:48:31;31.45;;;28.75;;
53879;SDS011;39791;53.184;5.486;2023-04-03T04:50:57;18.27;;;13.63;;
53879;SDS011;39791;53.184;5.486;2023-04-03T04:53:23;13.80;;;12.48;;
53879;SDS011;39791;53.184;5.486;2023-04-03T04:55:48;14.85;;;13.43;;
53879;SDS011;39791;53.184;5.486;2023-04-03T04:58:14;15.10;;;13.85;;
53879;SDS011;39791;53.184;5.486;2023-04-03T05:00:40;18.10;;;16.50;;
53879;SDS011;39791;53.184;5.486;2023-04-03T05:03:05;16.58;;;14.82;;
53879;SDS011;39791;53.184;5.486;2023-04-03T05:05:31;14.40;;;12.98;;
53879;SDS011;39791;53.184;5.486;2023-04-03T05:07:56;15.15;;;12.82;;
53879;SDS011;39791;53.184;5.486;2023-04-03T05:10:22;19.77;;;18.00;;
53879;SDS011;39791;53.184;5.486;2023-04-03T05:12:48;16.23;;;14.90;;
53879;SDS011;39791;53.184;5.486;2023-04-03T05:15:13;16.75;;;15.23;;
53879;SDS011;39791;53.184;5.486;2023-04-03T05:17:39;14.85;;;13.55;;
53879;SDS011;39791;53.184;5.486;2023-04-03T05:20:05;18.08;;;12.38;;
53879;SDS011;39791;53.184;5.486;2023-04-03T05:22:31;24.40;;;22.15;;
53879;SDS011;39791;53.184;5.486;2023-04-03T05:24:56;17.45;;;15.65;;
53879;SDS011;39791;53.184;5.486;2023-04-03T05:27:22;24.55;;;22.50;;
53879;SDS011;39791;53.184;5.486;2023-04-03T05:29:49;24.98;;;22.83;;
53879;SDS011;39791;53.184;5.486;2023-04-03T05:32:15;16.83;;;15.27;;
53879;SDS011;39791;53.184;5.486;2023-04-03T05:34:44;16.42;;;14.88;;
53879;SDS011;39791;53.184;5.486;2023-04-03T05:37:09;18.52;;;17.05;;
53879;SDS011;39791;53.184;5.486;2023-04-03T05:39:35;17.63;;;16.13;;
53879;SDS011;39791;53.184;5.486;2023-04-03T05:42:01;14.98;;;13.48;;
53879;SDS011;39791;53.184;5.486;2023-04-03T05:44:26;26.27;;;22.50;;
53879;SDS011;39791;53.184;5.486;2023-04-03T05:46:52;20.20;;;18.45;;
53879;SDS011;39791;53.184;5.486;2023-04-03T05:49:17;26.98;;;24.95;;
53879;SDS011;39791;53.184;5.486;2023-04-03T05:51:43;21.45;;;19.50;;
53879;SDS011;39791;53.184;5.486;2023-04-03T05:54:17;12.27;;;11.25;;
53879;SDS011;39791;53.184;5.486;2023-04-03T05:56:45;23.83;;;21.52;;
53879;SDS011;39791;53.184;5.486;2023-04-03T05:59:11;14.85;;;13.70;;
53879;SDS011;39791;53.184;5.486;2023-04-03T06:01:36;15.95;;;13.15;;
53879;SDS011;39791;53.184;5.486;2023-04-03T06:04:02;23.00;;;20.40;;
53879;SDS011;39791;53.184;5.486;2023-04-03T06:09:09;25.52;;;22.83;;
53879;SDS011;39791;53.184;5.486;2023-04-03T06:11:35;22.02;;;20.38;;
53879;SDS011;39791;53.184;5.486;2023-04-03T06:14:01;14.23;;;12.93;;
53879;SDS011;39791;53.184;5.486;2023-04-03T06:16:26;22.45;;;20.63;;
53879;SDS011;39791;53.184;5.486;2023-04-03T06:18:52;15.55;;;14.15;;
53879;SDS011;39791;53.184;5.486;2023-04-03T06:21:21;24.42;;;20.52;;
53879;SDS011;39791;53.184;5.486;2023-04-03T06:23:46;16.30;;;14.88;;
53879;SDS011;39791;53.184;5.486;2023-04-03T06:26:12;18.55;;;16.90;;
53879;SDS011;39791;53.184;5.486;2023-04-03T06:28:37;15.77;;;14.30;;
53879;SDS011;39791;53.184;5.486;2023-04-03T06:31:03;28.38;;;25.92;;
53879;SDS011;39791;53.184;5.486;2023-04-03T06:33:28;20.02;;;18.02;;
53879;SDS011;39791;53.184;5.486;2023-04-03T06:35:58;30.17;;;27.10;;
53879;SDS011;39791;53.184;5.486;2023-04-03T06:38:24;21.90;;;19.65;;
53879;SDS011;39791;53.184;5.486;2023-04-03T06:40:49;20.50;;;18.77;;
53879;SDS011;39791;53.184;5.486;2023-04-03T06:43:16;20.33;;;18.40;;
53879;SDS011;39791;53.184;5.486;2023-04-03T06:45:42;23.10;;;21.13;;
53879;SDS011;39791;53.184;5.486;2023-04-03T06:48:07;31.60;;;28.85;;
53879;SDS011;39791;53.184;5.486;2023-04-03T06:50:33;29.80;;;27.38;;
53879;SDS011;39791;53.184;5.486;2023-04-03T06:52:58;22.58;;;20.92;;
53879;SDS011;39791;53.184;5.486;2023-04-03T06:55:25;26.38;;;24.25;;
53879;SDS011;39791;53.184;5.486;2023-04-03T06:57:51;33.30;;;30.73;;
53879;SDS011;39791;53.184;5.486;2023-04-03T07:00:17;42.13;;;38.92;;
53879;SDS011;39791;53.184;5.486;2023-04-03T07:02:43;28.40;;;26.17;;
53879;SDS011;39791;53.184;5.486;2023-04-03T07:05:09;28.80;;;26.67;;
53879;SDS011;39791;53.184;5.486;2023-04-03T07:07:35;31.30;;;28.80;;
53879;SDS011;39791;53.184;5.486;2023-04-03T07:10:01;43.30;;;40.15;;
53879;SDS011;39791;53.184;5.486;2023-04-03T07:12:26;22.58;;;20.77;;
53879;SDS011;39791;53.184;5.486;2023-04-03T07:14:52;37.92;;;35.03;;
53879;SDS011;39791;53.184;5.486;2023-04-03T07:17:18;48.50;;;44.55;;
53879;SDS011;39791;53.184;5.486;2023-04-03T07:19:44;21.65;;;19.67;;
53879;SDS011;39791;53.184;5.486;2023-04-03T07:22:09;42.67;;;39.40;;
53879;SDS011;39791;53.184;5.486;2023-04-03T07:24:36;49.13;;;44.92;;
53879;SDS011;39791;53.184;5.486;2023-04-03T07:27:02;41.03;;;37.65;;
53879;SDS011;39791;53.184;5.486;2023-04-03T07:29:28;43.80;;;40.38;;
53879;SDS011;39791;53.184;5.486;2023-04-03T07:31:55;26.17;;;23.98;;
53879;SDS011;39791;53.184;5.486;2023-04-03T07:34:20;32.20;;;29.73;;
53879;SDS011;39791;53.184;5.486;2023-04-03T07:36:46;36.58;;;33.53;;
53879;SDS011;39791;53.184;5.486;2023-04-03T07:39:12;39.90;;;36.95;;
53879;SDS011;39791;53.184;5.486;2023-04-03T07:41:37;33.10;;;30.08;;
53879;SDS011;39791;53.184;5.486;2023-04-03T07:44:03;33.72;;;30.95;;
53879;SDS011;39791;53.184;5.486;2023-04-03T07:46:30;31.40;;;28.88;;
53879;SDS011;39791;53.184;5.486;2023-04-03T07:48:56;45.10;;;41.70;;
53879;SDS011;39791;53.184;5.486;2023-04-03T07:51:22;38.38;;;35.45;;
53879;SDS011;39791;53.184;5.486;2023-04-03T07:53:49;39.60;;;36.63;;
53879;SDS011;39791;53.184;5.486;2023-04-03T07:56:14;28.55;;;25.77;;
53879;SDS011;39791;53.184;5.486;2023-04-03T07:58:42;25.02;;;22.63;;
53879;SDS011;39791;53.184;5.486;2023-04-03T08:01:07;13.38;;;11.98;;
53879;SDS011;39791;53.184;5.486;2023-04-03T08:03:33;17.48;;;15.98;;
53879;SDS011;39791;53.184;5.486;2023-04-03T08:06:05;18.92;;;16.80;;
53879;SDS011;39791;53.184;5.486;2023-04-03T08:08:32;19.55;;;17.60;;
53879;SDS011;39791;53.184;5.486;2023-04-03T08:10:59;11.68;;;10.07;;
53879;SDS011;39791;53.184;5.486;2023-04-03T08:13:25;18.77;;;17.02;;
53879;SDS011;39791;53.184;5.486;2023-04-03T08:15:51;18.27;;;16.40;;
53879;SDS011;39791;53.184;5.486;2023-04-03T08:18:17;22.65;;;20.55;;
53879;SDS011;39791;53.184;5.486;2023-04-03T08:20:43;18.00;;;16.15;;
53879;SDS011;39791;53.184;5.486;2023-04-03T08:23:10;14.85;;;13.70;;
53879;SDS011;39791;53.184;5.486;2023-04-03T08:25:40;16.35;;;14.68;;
53879;SDS011;39791;53.184;5.486;2023-04-03T08:28:06;9.18;;;7.80;;
53879;SDS011;39791;53.184;5.486;2023-04-03T08:30:32;12.82;;;11.63;;
53879;SDS011;39791;53.184;5.486;2023-04-03T08:33:00;12.65;;;8.80;;
53879;SDS011;39791;53.184;5.486;2023-04-03T08:35:27;16.77;;;12.98;;
53879;SDS011;39791;53.184;5.486;2023-04-03T08:37:52;7.38;;;5.60;;
53879;SDS011;39791;53.184;5.486;2023-04-03T08:40:18;11.55;;;10.35;;
53879;SDS011;39791;53.184;5.486;2023-04-03T08:48:33;9.05;;;8.13;;
53879;SDS011;39791;53.184;5.486;2023-04-03T08:51:04;7.40;;;5.60;;
53879;SDS011;39791;53.184;5.486;2023-04-03T08:56:09;6.32;;;5.30;;
53879;SDS011;39791;53.184;5.486;2023-04-03T08:58:50;6.80;;;5.13;;
53879;SDS011;39791;53.184;5.486;2023-04-03T09:01:41;5.28;;;4.30;;
53879;SDS011;39791;53.184;5.486;2023-04-03T09:04:10;8.75;;;6.28;;
53879;SDS011;39791;53.184;5.486;2023-04-03T09:06:38;6.50;;;5.70;;
53879;SDS011;39791;53.184;5.486;2023-04-03T09:12:06;5.82;;;4.97;;
53879;SDS011;39791;53.184;5.486;2023-04-03T09:22:45;7.05;;;5.65;;
53879;SDS011;39791;53.184;5.486;2023-04-03T09:25:44;9.95;;;4.00;;
53879;SDS011;39791;53.184;5.486;2023-04-03T09:28:03;6.10;;;3.35;;
53879;SDS011;39791;53.184;5.486;2023-04-03T09:30:34;5.13;;;3.95;;
53879;SDS011;39791;53.184;5.486;2023-04-03T09:33:00;6.85;;;5.18;;
53879;SDS011;39791;53.184;5.486;2023-04-03T09:35:30;4.55;;;4.10;;
53879;SDS011;39791;53.184;5.486;2023-04-03T09:40:37;6.65;;;4.93;;
53879;SDS011;39791;53.184;5.486;2023-04-03T09:45:42;4.72;;;4.03;;
53879;SDS011;39791;53.184;5.486;2023-04-03T09:53:40;5.88;;;4.07;;
53879;SDS011;39791;53.184;5.486;2023-04-03T09:58:39;7.00;;;6.43;;
53879;SDS011;39791;53.184;5.486;2023-04-03T10:01:07;4.32;;;3.97;;
53879;SDS011;39791;53.184;5.486;2023-04-03T10:06:47;5.97;;;5.30;;
53879;SDS011;39791;53.184;5.486;2023-04-03T10:09:29;7.05;;;6.40;;
53879;SDS011;39791;53.184;5.486;2023-04-03T10:14:26;5.90;;;5.32;;
53879;SDS011;39791;53.184;5.486;2023-04-03T10:17:35;6.88;;;6.05;;
53879;SDS011;39791;53.184;5.486;2023-04-03T10:25:36;10.75;;;9.57;;
53879;SDS011;39791;53.184;5.486;2023-04-03T10:28:16;12.30;;;11.27;;
53879;SDS011;39791;53.184;5.486;2023-04-03T10:31:03;8.73;;;7.95;;
53879;SDS011;39791;53.184;5.486;2023-04-03T10:36:49;6.70;;;3.83;;
53879;SDS011;39791;53.184;5.486;2023-04-03T10:42:35;15.80;;;10.50;;
53879;SDS011;39791;53.184;5.486;2023-04-03T10:50:57;8.35;;;7.28;;
53879;SDS011;39791;53.184;5.486;2023-04-03T10:58:53;9.90;;;9.00;;
53879;SDS011;39791;53.184;5.486;2023-04-03T11:01:35;8.65;;;7.93;;
53879;SDS011;39791;53.184;5.486;2023-04-03T11:04:04;5.78;;;5.28;;
53879;SDS011;39791;53.184;5.486;2023-04-03T11:06:50;8.30;;;7.63;;
53879;SDS011;39791;53.184;5.486;2023-04-03T11:09:26;9.52;;;7.93;;
53879;SDS011;39791;53.184;5.486;2023-04-03T11:11:55;8.70;;;7.95;;
53879;SDS011;39791;53.184;5.486;2023-04-03T11:14:46;8.40;;;7.72;;
53879;SDS011;39791;53.184;5.486;2023-04-03T11:19:49;8.15;;;7.53;;
53879;SDS011;39791;53.184;5.486;2023-04-03T11:22:30;7.45;;;6.85;;
53879;SDS011;39791;53.184;5.486;2023-04-03T11:27:40;10.93;;;10.02;;
53879;SDS011;39791;53.184;5.486;2023-04-03T11:30:14;6.93;;;6.10;;
53879;SDS011;39791;53.184;5.486;2023-04-03T11:35:51;8.15;;;7.43;;
53879;SDS011;39791;53.184;5.486;2023-04-03T11:38:22;10.95;;;9.30;;
53879;SDS011;39791;53.184;5.486;2023-04-03T11:40:51;5.88;;;5.30;;
53879;SDS011;39791;53.184;5.486;2023-04-03T11:43:23;11.25;;;10.25;;
53879;SDS011;39791;53.184;5.486;2023-04-03T11:50:52;10.32;;;9.55;;
53879;SDS011;39791;53.184;5.486;2023-04-03T11:53:26;15.38;;;14.27;;
53879;SDS011;39791;53.184;5.486;2023-04-03T12:01:52;5.80;;;5.35;;
53879;SDS011;39791;53.184;5.486;2023-04-03T12:04:20;6.18;;;5.53;;
53879;SDS011;39791;53.184;5.486;2023-04-03T12:09:29;5.20;;;4.30;;
53879;SDS011;39791;53.184;5.486;2023-04-03T12:11:59;8.88;;;7.97;;
53879;SDS011;39791;53.184;5.486;2023-04-03T12:14:27;9.05;;;8.15;;
53879;SDS011;39791;53.184;5.486;2023-04-03T12:16:54;4.75;;;3.63;;
53879;SDS011;39791;53.184;5.486;2023-04-03T12:24:29;4.53;;;4.05;;
53879;SDS011;39791;53.184;5.486;2023-04-03T12:27:03;6.97;;;6.35;;
53879;SDS011;39791;53.184;5.486;2023-04-03T12:30:04;11.18;;;10.18;;
53879;SDS011;39791;53.184;5.486;2023-04-03T12:35:04;9.88;;;9.10;;
53879;SDS011;39791;53.184;5.486;2023-04-03T12:45:40;8.75;;;7.95;;
53879;SDS011;39791;53.184;5.486;2023-04-03T12:48:18;11.23;;;9.85;;
53879;SDS011;39791;53.184;5.486;2023-04-03T12:50:50;8.30;;;7.50;;
53879;SDS011;39791;53.184;5.486;2023-04-03T12:53:21;7.82;;;6.22;;
53879;SDS011;39791;53.184;5.486;2023-04-03T12:58:48;8.50;;;5.60;;
53879;SDS011;39791;53.184;5.486;2023-04-03T13:01:17;5.80;;;4.85;;
53879;SDS011;39791;53.184;5.486;2023-04-03T13:03:47;5.88;;;5.47;;
53879;SDS011;39791;53.184;5.486;2023-04-03T13:06:20;8.90;;;8.00;;
53879;SDS011;39791;53.184;5.486;2023-04-03T13:08:52;3.63;;;3.30;;
53879;SDS011;39791;53.184;5.486;2023-04-03T13:11:22;9.02;;;7.35;;
53879;SDS011;39791;53.184;5.486;2023-04-03T13:14:03;8.38;;;4.88;;
53879;SDS011;39791;53.184;5.486;2023-04-03T13:16:31;6.85;;;6.22;;
53879;SDS011;39791;53.184;5.486;2023-04-03T13:18:58;5.88;;;5.38;;
53879;SDS011;39791;53.184;5.486;2023-04-03T13:21:25;9.38;;;8.50;;
53879;SDS011;39791;53.184;5.486;2023-04-03T13:23:57;10.48;;;9.73;;
53879;SDS011;39791;53.184;5.486;2023-04-03T13:26:26;5.25;;;4.75;;
53879;SDS011;39791;53.184;5.486;2023-04-03T13:28:59;8.38;;;7.70;;
53879;SDS011;39791;53.184;5.486;2023-04-03T13:31:29;19.77;;;18.13;;
53879;SDS011;39791;53.184;5.486;2023-04-03T13:36:29;7.03;;;5.78;;
53879;SDS011;39791;53.184;5.486;2023-04-03T13:39:01;4.80;;;4.40;;
53879;SDS011;39791;53.184;5.486;2023-04-03T13:41:33;6.45;;;5.93;;
53879;SDS011;39791;53.184;5.486;2023-04-03T13:46:48;8.57;;;6.53;;
53879;SDS011;39791;53.184;5.486;2023-04-03T13:51:43;12.45;;;11.35;;
53879;SDS011;39791;53.184;5.486;2023-04-03T13:57:11;4.05;;;3.65;;
53879;SDS011;39791;53.184;5.486;2023-04-03T13:59:40;7.45;;;6.68;;
53879;SDS011;39791;53.184;5.486;2023-04-03T14:02:10;5.53;;;4.90;;
53879;SDS011;39791;53.184;5.486;2023-04-03T14:07:09;7.50;;;6.75;;
53879;SDS011;39791;53.184;5.486;2023-04-03T14:09:35;9.80;;;8.90;;
53879;SDS011;39791;53.184;5.486;2023-04-03T14:12:06;7.55;;;6.80;;
53879;SDS011;39791;53.184;5.486;2023-04-03T14:14:37;5.05;;;4.55;;
53879;SDS011;39791;53.184;5.486;2023-04-03T14:17:16;6.03;;;5.55;;
53879;SDS011;39791;53.184;5.486;2023-04-03T14:19:46;10.55;;;9.65;;
53879;SDS011;39791;53.184;5.486;2023-04-03T14:22:14;6.55;;;6.05;;
53879;SDS011;39791;53.184;5.486;2023-04-03T14:24:43;9.88;;;8.80;;
53879;SDS011;39791;53.184;5.486;2023-04-03T14:27:21;7.05;;;4.60;;
53879;SDS011;39791;53.184;5.486;2023-04-03T14:29:56;10.27;;;8.77;;
53879;SDS011;39791;53.184;5.486;2023-04-03T14:32:23;5.00;;;4.50;;
53879;SDS011;39791;53.184;5.486;2023-04-03T14:34:50;11.90;;;8.50;;
53879;SDS011;39791;53.184;5.486;2023-04-03T14:37:22;7.38;;;3.85;;
53879;SDS011;39791;53.184;5.486;2023-04-03T14:39:49;4.85;;;4.28;;
53879;SDS011;39791;53.184;5.486;2023-04-03T14:42:19;8.98;;;6.05;;
53879;SDS011;39791;53.184;5.486;2023-04-03T14:44:56;8.50;;;7.75;;
53879;SDS011;39791;53.184;5.486;2023-04-03T14:47:23;6.07;;;5.50;;
53879;SDS011;39791;53.184;5.486;2023-04-03T14:49:51;5.22;;;4.80;;
53879;SDS011;39791;53.184;5.486;2023-04-03T14:52:19;10.43;;;9.32;;
53879;SDS011;39791;53.184;5.486;2023-04-03T14:54:56;6.63;;;4.88;;
53879;SDS011;39791;53.184;5.486;2023-04-03T14:57:23;7.38;;;6.75;;
53879;SDS011;39791;53.184;5.486;2023-04-03T14:59:50;8.07;;;7.28;;
53879;SDS011;39791;53.184;5.486;2023-04-03T15:02:26;5.18;;;4.60;;
53879;SDS011;39791;53.184;5.486;2023-04-03T15:04:52;11.30;;;10.15;;
53879;SDS011;39791;53.184;5.486;2023-04-03T15:07:19;16.02;;;14.57;;
53879;SDS011;39791;53.184;5.486;2023-04-03T15:09:45;6.82;;;4.28;;
53879;SDS011;39791;53.184;5.486;2023-04-03T15:12:11;7.10;;;6.50;;
53879;SDS011;39791;53.184;5.486;2023-04-03T15:14:37;7.53;;;6.85;;
53879;SDS011;39791;53.184;5.486;2023-04-03T15:17:06;11.65;;;10.65;;
53879;SDS011;39791;53.184;5.486;2023-04-03T15:19:37;11.18;;;9.05;;
53879;SDS011;39791;53.184;5.486;2023-04-03T15:22:03;14.20;;;11.75;;
53879;SDS011;39791;53.184;5.486;2023-04-03T15:24:29;11.45;;;10.38;;
53879;SDS011;39791;53.184;5.486;2023-04-03T15:26:55;9.60;;;8.18;;
53879;SDS011;39791;53.184;5.486;2023-04-03T15:29:20;13.13;;;8.68;;
53879;SDS011;39791;53.184;5.486;2023-04-03T15:31:46;7.18;;;5.55;;
53879;SDS011;39791;53.184;5.486;2023-04-03T15:34:11;10.43;;;8.60;;
53879;SDS011;39791;53.184;5.486;2023-04-03T15:36:37;10.15;;;9.18;;
53879;SDS011;39791;53.184;5.486;2023-04-03T15:39:03;7.72;;;7.03;;
53879;SDS011;39791;53.184;5.486;2023-04-03T15:41:28;9.27;;;8.43;;
53879;SDS011;39791;53.184;5.486;2023-04-03T15:43:54;6.63;;;6.03;;
53879;SDS011;39791;53.184;5.486;2023-04-03T15:46:21;14.32;;;10.68;;
53879;SDS011;39791;53.184;5.486;2023-04-03T15:48:46;18.05;;;16.52;;
53879;SDS011;39791;53.184;5.486;2023-04-03T15:51:12;13.80;;;12.38;;
53879;SDS011;39791;53.184;5.486;2023-04-03T15:53:38;15.38;;;14.10;;
53879;SDS011;39791;53.184;5.486;2023-04-03T15:56:03;12.95;;;11.70;;
53879;SDS011;39791;53.184;5.486;2023-04-03T15:58:29;27.73;;;25.20;;
53879;SDS011;39791;53.184;5.486;2023-04-03T16:00:59;26.42;;;24.35;;
53879;SDS011;39791;53.184;5.486;2023-04-03T16:03:26;29.95;;;27.00;;
53879;SDS011;39791;53.184;5.486;2023-04-03T16:05:52;25.92;;;23.90;;
53879;SDS011;39791;53.184;5.486;2023-04-03T16:08:18;10.65;;;9.65;;
53879;SDS011;39791;53.184;5.486;2023-04-03T16:10:45;30.15;;;27.75;;
53879;SDS011;39791;53.184;5.486;2023-04-03T16:13:11;32.30;;;29.20;;
53879;SDS011;39791;53.184;5.486;2023-04-03T16:15:37;33.75;;;30.75;;
53879;SDS011;39791;53.184;5.486;2023-04-03T16:18:03;48.22;;;44.28;;
53879;SDS011;39791;53.184;5.486;2023-04-03T16:20:30;32.15;;;29.00;;
53879;SDS011;39791;53.184;5.486;2023-04-03T16:22:57;32.70;;;30.17;;
53879;SDS011;39791;53.184;5.486;2023-04-03T16:25:24;34.75;;;31.63;;
53879;SDS011;39791;53.184;5.486;2023-04-03T16:27:50;33.67;;;30.92;;
53879;SDS011;39791;53.184;5.486;2023-04-03T16:30:16;36.63;;;33.40;;
53879;SDS011;39791;53.184;5.486;2023-04-03T16:32:41;31.70;;;29.30;;
53879;SDS011;39791;53.184;5.486;2023-04-03T16:35:08;36.42;;;33.17;;
53879;SDS011;39791;53.184;5.486;2023-04-03T16:37:35;36.45;;;33.67;;
53879;SDS011;39791;53.184;5.486;2023-04-03T16:40:02;33.83;;;31.10;;